sensor_id;sensor_type;location;lat;lon;timestamp;pressure;altitude;pressure_sealevel;temperature;humidity
54270;BME280;40181;51.560;13.000;2023-12-20T00:01:33;100238.50;;;5.25;100.00
54270;BME280;40181;51.560;13.000;2023-12-20T00:04:02;100248.84;;;5.23;100.00
54270;BME280;40181;51.560;13.000;2023-12-20T00:06:34;100237.56;;;5.23;100.00
54270;BME280;40181;51.560;13.000;2023-12-20T00:09:03;100232.19;;;5.17;100.00
54270;BME280;40181;51.560;13.000;2023-12-20T00:11:32;100241.13;;;4.97;100.00
54270;BME280;40181;51.560;13.000;2023-12-20T00:14:01;100232.09;;;5.14;100.00
54270;BME280;40181;51.560;13.000;2023-12-20T00:16:30;100249.97;;;5.03;100.00
54270;BME280;40181;51.560;13.000;2023-12-20T00:18:59;100240.56;;;5.06;100.00
54270;BME280;40181;51.560;13.000;2023-12-20T00:21:31;100227.03;;;5.20;100.00
54270;BME280;40181;51.560;13.000;2023-12-20T00:24:00;100222.34;;;5.08;100.00
54270;BME280;40181;51.560;13.000;2023-12-20T00:26:29;100209.94;;;4.99;100.00
54270;BME280;40181;51.560;13.000;2023-12-20T00:28:58;100211.06;;;5.07;100.00
54270;BME280;40181;51.560;13.000;2023-12-20T00:31:28;100220.16;;;5.22;100.00
54270;BME280;40181;51.560;13.000;2023-12-20T00:33:57;100213.09;;;5.18;100.00
54270;BME280;40181;51.560;13.000;2023-12-20T00:36:26;100221.00;;;4.92;100.00
54270;BME280;40181;51.560;13.000;2023-12-20T00:38:57;100222.97;;;4.99;100.00
54270;BME280;40181;51.560;13.000;2023-12-20T00:41:26;100212.81;;;5.08;100.00
54270;BME280;40181;51.560;13.000;2023-12-20T00:43:56;100209.53;;;4.85;100.00
54270;BME280;40181;51.560;13.000;2023-12-20T00:46:25;100220.81;;;4.85;100.00
54270;BME280;40181;51.560;13.000;2023-12-20T00:48:54;100218.59;;;4.98;100.00
54270;BME280;40181;51.560;13.000;2023-12-20T00:51:23;100215.06;;;4.96;100.00
54270;BME280;40181;51.560;13.000;2023-12-20T00:53:52;100214.19;;;4.95;100.00
54270;BME280;40181;51.560;13.000;2023-12-20T00:56:24;100203.81;;;4.97;100.00
54270;BME280;40181;51.560;13.000;2023-12-20T00:58:53;100194.47;;;5.04;100.00
54270;BME280;40181;51.560;13.000;2023-12-20T01:01:22;100202.34;;;5.07;100.00
54270;BME280;40181;51.560;13.000;2023-12-20T01:03:51;100206.97;;;4.87;100.00
54270;BME280;40181;51.560;13.000;2023-12-20T01:06:20;100199.53;;;4.99;100.00
54270;BME280;40181;51.560;13.000;2023-12-20T01:08:49;100205.78;;;5.04;100.00
54270;BME280;40181;51.560;13.000;2023-12-20T01:11:18;100202.06;;;4.96;100.00
54270;BME280;40181;51.560;13.000;2023-12-20T01:13:50;100214.81;;;4.88;100.00
54270;BME280;40181;51.560;13.000;2023-12-20T01:16:19;100216.34;;;5.10;100.00
54270;BME280;40181;51.560;13.000;2023-12-20T01:18:48;100208.25;;;5.01;100.00
54270;BME280;40181;51.560;13.000;2023-12-20T01:21:18;100203.19;;;5.06;100.00
54270;BME280;40181;51.560;13.000;2023-12-20T01:23:47;100210.50;;;4.89;100.00
54270;BME280;40181;51.560;13.000;2023-12-20T01:26:16;100204.88;;;5.04;100.00
54270;BME280;40181;51.560;13.000;2023-12-20T01:28:45;100197.91;;;5.03;100.00
54270;BME280;40181;51.560;13.000;2023-12-20T01:31:16;100199.59;;;5.01;100.00
54270;BME280;40181;51.560;13.000;2023-12-20T01:33:46;100192.66;;;5.01;100.00
54270;BME280;40181;51.560;13.000;2023-12-20T01:36:15;100197.13;;;5.05;100.00
54270;BME280;40181;51.560;13.000;2023-12-20T01:38:45;100178.78;;;5.02;100.00
54270;BME280;40181;51.560;13.000;2023-12-20T01:41:14;100193.44;;;4.98;100.00
54270;BME280;40181;51.560;13.000;2023-12-20T01:43:43;100177.25;;;4.80;100.00
54270;BME280;40181;51.560;13.000;2023-12-20T01:46:13;100177.50;;;4.88;100.00
54270;BME280;40181;51.560;13.000;2023-12-20T01:48:45;100183.72;;;4.93;100.00
54270;BME280;40181;51.560;13.000;2023-12-20T01:51:15;100178.63;;;4.96;100.00
54270;BME280;40181;51.560;13.000;2023-12-20T01:53:44;100175.63;;;4.83;100.00
54270;BME280;40181;51.560;13.000;2023-12-20T01:56:14;100174.34;;;4.98;100.00
54270;BME280;40181;51.560;13.000;2023-12-20T01:58:45;100169.78;;;4.91;100.00
54270;BME280;40181;51.560;13.000;2023-12-20T02:01:17;100154.56;;;5.05;100.00
54270;BME280;40181;51.560;13.000;2023-12-20T02:03:47;100164.19;;;5.07;100.00
54270;BME280;40181;51.560;13.000;2023-12-20T02:06:16;100173.31;;;4.93;100.00
54270;BME280;40181;51.560;13.000;2023-12-20T02:08:47;100160.91;;;4.84;100.00
54270;BME280;40181;51.560;13.000;2023-12-20T02:11:16;100158.06;;;5.05;100.00
54270;BME280;40181;51.560;13.000;2023-12-20T02:13:45;100173.16;;;4.88;100.00
54270;BME280;40181;51.560;13.000;2023-12-20T02:16:14;100168.75;;;4.85;100.00
54270;BME280;40181;51.560;13.000;2023-12-20T02:18:46;100166.97;;;4.84;100.00
54270;BME280;40181;51.560;13.000;2023-12-20T02:21:15;100153.72;;;5.04;100.00
54270;BME280;40181;51.560;13.000;2023-12-20T02:23:47;100165.69;;;4.99;100.00
54270;BME280;40181;51.560;13.000;2023-12-20T02:26:16;100160.25;;;4.91;100.00
54270;BME280;40181;51.560;13.000;2023-12-20T02:28:45;100157.00;;;4.69;100.00
54270;BME280;40181;51.560;13.000;2023-12-20T02:31:14;100148.59;;;4.78;100.00
54270;BME280;40181;51.560;13.000;2023-12-20T02:33:43;100144.31;;;4.80;100.00
54270;BME280;40181;51.560;13.000;2023-12-20T02:36:12;100145.03;;;4.75;100.00
54270;BME280;40181;51.560;13.000;2023-12-20T02:38:41;100136.38;;;4.76;100.00
54270;BME280;40181;51.560;13.000;2023-12-20T02:41:13;100135.47;;;4.75;100.00
54270;BME280;40181;51.560;13.000;2023-12-20T02:43:43;100121.50;;;5.02;100.00
54270;BME280;40181;51.560;13.000;2023-12-20T02:46:14;100122.88;;;4.89;100.00
54270;BME280;40181;51.560;13.000;2023-12-20T02:48:44;100136.84;;;4.91;100.00
54270;BME280;40181;51.560;13.000;2023-12-20T02:51:14;100138.34;;;4.84;100.00
54270;BME280;40181;51.560;13.000;2023-12-20T02:53:43;100135.66;;;4.81;100.00
54270;BME280;40181;51.560;13.000;2023-12-20T02:56:15;100142.34;;;4.73;100.00
54270;BME280;40181;51.560;13.000;2023-12-20T02:58:44;100140.03;;;4.82;100.00
54270;BME280;40181;51.560;13.000;2023-12-20T03:01:13;100148.75;;;4.84;100.00
54270;BME280;40181;51.560;13.000;2023-12-20T03:03:42;100138.13;;;4.77;100.00
54270;BME280;40181;51.560;13.000;2023-12-20T03:06:11;100134.81;;;4.82;100.00
54270;BME280;40181;51.560;13.000;2023-12-20T03:08:43;100138.06;;;4.75;100.00
54270;BME280;40181;51.560;13.000;2023-12-20T03:11:15;100124.47;;;4.84;100.00
54270;BME280;40181;51.560;13.000;2023-12-20T03:13:44;100136.13;;;4.97;100.00
54270;BME280;40181;51.560;13.000;2023-12-20T03:16:13;100135.66;;;4.81;100.00
54270;BME280;40181;51.560;13.000;2023-12-20T03:18:42;100125.47;;;4.60;100.00
54270;BME280;40181;51.560;13.000;2023-12-20T03:21:12;100139.31;;;4.87;100.00
54270;BME280;40181;51.560;13.000;2023-12-20T03:23:41;100119.75;;;5.01;100.00
54270;BME280;40181;51.560;13.000;2023-12-20T03:26:10;100128.34;;;4.98;100.00
54270;BME280;40181;51.560;13.000;2023-12-20T03:28:42;100139.44;;;4.91;100.00
54270;BME280;40181;51.560;13.000;2023-12-20T03:31:11;100133.06;;;4.81;100.00
54270;BME280;40181;51.560;13.000;2023-12-20T03:33:40;100127.22;;;4.89;100.00
54270;BME280;40181;51.560;13.000;2023-12-20T03:36:09;100131.94;;;4.73;100.00
54270;BME280;40181;51.560;13.000;2023-12-20T03:38:38;100136.13;;;4.97;100.00
54270;BME280;40181;51.560;13.000;2023-12-20T03:41:07;100141.16;;;4.91;100.00
54270;BME280;40181;51.560;13.000;2023-12-20T03:43:36;100131.72;;;4.94;100.00
54270;BME280;40181;51.560;13.000;2023-12-20T03:46:08;100122.16;;;4.95;100.00
54270;BME280;40181;51.560;13.000;2023-12-20T03:48:37;100121.31;;;4.94;100.00
54270;BME280;40181;51.560;13.000;2023-12-20T03:51:06;100141.22;;;4.94;100.00
54270;BME280;40181;51.560;13.000;2023-12-20T03:53:35;100133.00;;;4.80;100.00
54270;BME280;40181;51.560;13.000;2023-12-20T03:56:06;100132.75;;;5.01;100.00
54270;BME280;40181;51.560;13.000;2023-12-20T03:58:35;100135.50;;;5.06;100.00
54270;BME280;40181;51.560;13.000;2023-12-20T04:01:11;100137.78;;;4.95;100.00
54270;BME280;40181;51.560;13.000;2023-12-20T04:03:40;100148.44;;;5.03;100.00
54270;BME280;40181;51.560;13.000;2023-12-20T04:06:09;100129.25;;;4.99;100.00
54270;BME280;40181;51.560;13.000;2023-12-20T04:08:38;100126.13;;;5.12;100.00
54270;BME280;40181;51.560;13.000;2023-12-20T04:11:07;100127.09;;;5.15;100.00
54270;BME280;40181;51.560;13.000;2023-12-20T04:13:36;100132.97;;;5.07;100.00
54270;BME280;40181;51.560;13.000;2023-12-20T04:16:06;100135.47;;;5.04;100.00
54270;BME280;40181;51.560;13.000;2023-12-20T04:18:37;100141.50;;;5.03;100.00
54270;BME280;40181;51.560;13.000;2023-12-20T04:21:06;100143.25;;;5.03;100.00
54270;BME280;40181;51.560;13.000;2023-12-20T04:23:36;100151.63;;;4.94;100.00
54270;BME280;40181;51.560;13.000;2023-12-20T04:26:05;100165.19;;;5.11;100.00
54270;BME280;40181;51.560;13.000;2023-12-20T04:28:34;100150.84;;;4.96;100.00
54270;BME280;40181;51.560;13.000;2023-12-20T04:31:05;100150.28;;;5.07;100.00
54270;BME280;40181;51.560;13.000;2023-12-20T04:33:37;100144.22;;;5.08;100.00
54270;BME280;40181;51.560;13.000;2023-12-20T04:36:06;100152.16;;;5.11;100.00
54270;BME280;40181;51.560;13.000;2023-12-20T04:38:35;100157.16;;;5.05;100.00
54270;BME280;40181;51.560;13.000;2023-12-20T04:41:05;100153.03;;;5.11;100.00
54270;BME280;40181;51.560;13.000;2023-12-20T04:43:34;100153.91;;;5.12;100.00
54270;BME280;40181;51.560;13.000;2023-12-20T04:46:03;100148.06;;;5.21;100.00
54270;BME280;40181;51.560;13.000;2023-12-20T04:48:32;100147.28;;;5.23;100.00
54270;BME280;40181;51.560;13.000;2023-12-20T04:51:04;100162.06;;;5.24;100.00
54270;BME280;40181;51.560;13.000;2023-12-20T04:53:33;100155.63;;;5.11;100.00
54270;BME280;40181;51.560;13.000;2023-12-20T04:56:02;100145.66;;;5.27;100.00
54270;BME280;40181;51.560;13.000;2023-12-20T04:58:32;100130.94;;;5.28;100.00
54270;BME280;40181;51.560;13.000;2023-12-20T05:01:01;100132.38;;;5.18;100.00
54270;BME280;40181;51.560;13.000;2023-12-20T05:03:31;100120.81;;;5.08;100.00
54270;BME280;40181;51.560;13.000;2023-12-20T05:06:00;100129.19;;;4.97;100.00
54270;BME280;40181;51.560;13.000;2023-12-20T05:08:32;100130.09;;;5.29;100.00
54270;BME280;40181;51.560;13.000;2023-12-20T05:11:01;100149.81;;;5.20;100.00
54270;BME280;40181;51.560;13.000;2023-12-20T05:13:31;100143.44;;;5.09;100.00
54270;BME280;40181;51.560;13.000;2023-12-20T05:16:00;100156.53;;;5.12;100.00
54270;BME280;40181;51.560;13.000;2023-12-20T05:18:29;100162.06;;;4.94;100.00
54270;BME280;40181;51.560;13.000;2023-12-20T05:20:58;100158.47;;;5.19;100.00
54270;BME280;40181;51.560;13.000;2023-12-20T05:23:30;100169.88;;;5.24;100.00
54270;BME280;40181;51.560;13.000;2023-12-20T05:25:59;100169.59;;;5.14;100.00
54270;BME280;40181;51.560;13.000;2023-12-20T05:28:28;100175.16;;;5.26;100.00
54270;BME280;40181;51.560;13.000;2023-12-20T05:30:57;100168.13;;;5.23;100.00
54270;BME280;40181;51.560;13.000;2023-12-20T05:33:27;100172.50;;;5.24;100.00
54270;BME280;40181;51.560;13.000;2023-12-20T05:35:56;100177.84;;;5.29;100.00
54270;BME280;40181;51.560;13.000;2023-12-20T05:38:25;100161.09;;;5.21;100.00
54270;BME280;40181;51.560;13.000;2023-12-20T05:40:57;100170.06;;;5.31;100.00
54270;BME280;40181;51.560;13.000;2023-12-20T05:43:26;100160.56;;;5.31;100.00
54270;BME280;40181;51.560;13.000;2023-12-20T05:45:55;100165.59;;;5.26;100.00
54270;BME280;40181;51.560;13.000;2023-12-20T05:48:24;100159.34;;;5.20;100.00
54270;BME280;40181;51.560;13.000;2023-12-20T05:50:53;100165.47;;;5.22;100.00
54270;BME280;40181;51.560;13.000;2023-12-20T05:53:22;100164.19;;;5.07;100.00
54270;BME280;40181;51.560;13.000;2023-12-20T05:55:51;100166.38;;;5.22;100.00
54270;BME280;40181;51.560;13.000;2023-12-20T05:58:23;100173.25;;;5.20;100.00
54270;BME280;40181;51.560;13.000;2023-12-20T06:00:52;100180.78;;;5.11;100.00
54270;BME280;40181;51.560;13.000;2023-12-20T06:03:21;100176.09;;;4.99;100.00
54270;BME280;40181;51.560;13.000;2023-12-20T06:05:50;100168.69;;;5.13;100.00
54270;BME280;40181;51.560;13.000;2023-12-20T06:08:20;100171.94;;;5.04;100.00
54270;BME280;40181;51.560;13.000;2023-12-20T06:10:49;100173.53;;;5.30;100.00
54270;BME280;40181;51.560;13.000;2023-12-20T06:13:19;100172.34;;;5.18;100.00
54270;BME280;40181;51.560;13.000;2023-12-20T06:15:51;100169.22;;;5.01;100.00
54270;BME280;40181;51.560;13.000;2023-12-20T06:18:20;100164.25;;;4.80;100.00
54270;BME280;40181;51.560;13.000;2023-12-20T06:20:49;100175.06;;;4.94;100.00
54270;BME280;40181;51.560;13.000;2023-12-20T06:23:19;100175.47;;;5.08;100.00
54270;BME280;40181;51.560;13.000;2023-12-20T06:25:48;100163.69;;;5.19;100.00
54270;BME280;40181;51.560;13.000;2023-12-20T06:28:17;100175.47;;;5.08;100.00
54270;BME280;40181;51.560;13.000;2023-12-20T06:30:48;100171.47;;;4.89;100.00
54270;BME280;40181;51.560;13.000;2023-12-20T06:33:20;100174.38;;;4.99;100.00
54270;BME280;40181;51.560;13.000;2023-12-20T06:35:49;100179.75;;;5.06;100.00
54270;BME280;40181;51.560;13.000;2023-12-20T06:38:19;100187.72;;;4.81;100.00
54270;BME280;40181;51.560;13.000;2023-12-20T06:40:48;100178.50;;;4.93;100.00
54270;BME280;40181;51.560;13.000;2023-12-20T06:43:17;100176.03;;;4.96;100.00
54270;BME280;40181;51.560;13.000;2023-12-20T06:45:49;100179.41;;;4.93;100.00
54270;BME280;40181;51.560;13.000;2023-12-20T06:48:18;100179.69;;;4.74;100.00
54270;BME280;40181;51.560;13.000;2023-12-20T06:50:47;100174.97;;;4.62;100.00
54270;BME280;40181;51.560;13.000;2023-12-20T06:53:16;100177.31;;;4.54;100.00
54270;BME280;40181;51.560;13.000;2023-12-20T06:55:45;100177.28;;;4.52;100.00
54270;BME280;40181;51.560;13.000;2023-12-20T06:58:14;100179.69;;;4.46;100.00
54270;BME280;40181;51.560;13.000;2023-12-20T07:00:41;100171.91;;;4.75;100.00
54270;BME280;40181;51.560;13.000;2023-12-20T07:03:13;100187.25;;;4.38;100.00
54270;BME280;40181;51.560;13.000;2023-12-20T07:05:43;100187.28;;;4.40;100.00
54270;BME280;40181;51.560;13.000;2023-12-20T07:08:12;100178.31;;;4.57;100.00
54270;BME280;40181;51.560;13.000;2023-12-20T07:10:42;100178.78;;;4.46;100.00
54270;BME280;40181;51.560;13.000;2023-12-20T07:13:11;100172.44;;;4.36;100.00
54270;BME280;40181;51.560;13.000;2023-12-20T07:15:41;100156.06;;;4.40;100.00
54270;BME280;40181;51.560;13.000;2023-12-20T07:18:12;100163.78;;;4.37;100.00
54270;BME280;40181;51.560;13.000;2023-12-20T07:20:42;100178.00;;;4.48;100.00
54270;BME280;40181;51.560;13.000;2023-12-20T07:23:11;100175.69;;;4.57;100.00
54270;BME280;40181;51.560;13.000;2023-12-20T07:25:40;100171.69;;;4.67;100.00
54270;BME280;40181;51.560;13.000;2023-12-20T07:28:09;100184.81;;;4.45;100.00
54270;BME280;40181;51.560;13.000;2023-12-20T07:30:38;100170.06;;;4.43;100.00
54270;BME280;40181;51.560;13.000;2023-12-20T07:33:08;100180.06;;;4.31;100.00
54270;BME280;40181;51.560;13.000;2023-12-20T07:35:40;100177.72;;;4.39;100.00
54270;BME280;40181;51.560;13.000;2023-12-20T07:38:10;100176.16;;;4.44;100.00
54270;BME280;40181;51.560;13.000;2023-12-20T07:40:40;100199.03;;;4.54;100.00
54270;BME280;40181;51.560;13.000;2023-12-20T07:43:09;100192.59;;;4.43;100.00
54270;BME280;40181;51.560;13.000;2023-12-20T07:45:38;100185.34;;;4.33;100.00
54270;BME280;40181;51.560;13.000;2023-12-20T07:48:07;100197.06;;;4.47;100.00
54270;BME280;40181;51.560;13.000;2023-12-20T07:50:36;100196.88;;;4.68;100.00
54270;BME280;40181;51.560;13.000;2023-12-20T07:53:08;100202.19;;;4.46;100.00
54270;BME280;40181;51.560;13.000;2023-12-20T07:55:37;100193.03;;;4.57;100.00
54270;BME280;40181;51.560;13.000;2023-12-20T07:58:08;100192.56;;;4.69;100.00
54270;BME280;40181;51.560;13.000;2023-12-20T08:00:37;100193.19;;;4.62;100.00
54270;BME280;40181;51.560;13.000;2023-12-20T08:03:06;100187.94;;;4.60;100.00
54270;BME280;40181;51.560;13.000;2023-12-20T08:05:35;100200.94;;;4.60;100.00
54270;BME280;40181;51.560;13.000;2023-12-20T08:08:08;100197.56;;;4.63;100.00
54270;BME280;40181;51.560;13.000;2023-12-20T08:10:37;100192.16;;;4.56;100.00
54270;BME280;40181;51.560;13.000;2023-12-20T08:13:06;100193.38;;;4.40;100.00
54270;BME280;40181;51.560;13.000;2023-12-20T08:15:35;100178.59;;;4.67;100.00
54270;BME280;40181;51.560;13.000;2023-12-20T08:18:05;100185.66;;;4.71;100.00
54270;BME280;40181;51.560;13.000;2023-12-20T08:20:34;100185.75;;;4.74;100.00
54270;BME280;40181;51.560;13.000;2023-12-20T08:23:03;100182.94;;;4.66;100.00
54270;BME280;40181;51.560;13.000;2023-12-20T08:25:35;100178.84;;;4.75;100.00
54270;BME280;40181;51.560;13.000;2023-12-20T08:28:05;100178.22;;;4.83;100.00
54270;BME280;40181;51.560;13.000;2023-12-20T08:30:34;100184.91;;;4.75;100.00
54270;BME280;40181;51.560;13.000;2023-12-20T08:33:06;100176.25;;;4.75;100.00
54270;BME280;40181;51.560;13.000;2023-12-20T08:35:38;100170.69;;;4.93;100.00
54270;BME280;40181;51.560;13.000;2023-12-20T08:38:07;100172.84;;;5.06;100.00
54270;BME280;40181;51.560;13.000;2023-12-20T08:40:39;100184.13;;;5.07;100.00
54270;BME280;40181;51.560;13.000;2023-12-20T08:43:08;100184.41;;;5.16;100.00
54270;BME280;40181;51.560;13.000;2023-12-20T08:45:38;100180.16;;;5.18;100.00
54270;BME280;40181;51.560;13.000;2023-12-20T08:48:07;100189.31;;;5.05;100.00
54270;BME280;40181;51.560;13.000;2023-12-20T08:50:36;100189.75;;;5.21;100.00
54270;BME280;40181;51.560;13.000;2023-12-20T08:53:05;100188.78;;;5.17;100.00
54270;BME280;40181;51.560;13.000;2023-12-20T08:55:34;100184.88;;;5.03;100.00
54270;BME280;40181;51.560;13.000;2023-12-20T08:58:06;100178.91;;;5.05;100.00
54270;BME280;40181;51.560;13.000;2023-12-20T09:00:35;100177.28;;;5.09;100.00
54270;BME280;40181;51.560;13.000;2023-12-20T09:03:04;100172.88;;;5.08;100.00
54270;BME280;40181;51.560;13.000;2023-12-20T09:05:33;100165.91;;;5.07;100.00
54270;BME280;40181;51.560;13.000;2023-12-20T09:08:03;100165.53;;;5.23;100.00
54270;BME280;40181;51.560;13.000;2023-12-20T09:10:33;100168.06;;;5.22;100.00
54270;BME280;40181;51.560;13.000;2023-12-20T09:13:02;100167.28;;;5.24;98.95
54270;BME280;40181;51.560;13.000;2023-12-20T09:15:34;100185.50;;;5.24;99.87
54270;BME280;40181;51.560;13.000;2023-12-20T09:18:03;100187.66;;;5.38;98.64
54270;BME280;40181;51.560;13.000;2023-12-20T09:20:33;100182.25;;;5.32;98.39
54270;BME280;40181;51.560;13.000;2023-12-20T09:23:02;100172.03;;;5.39;98.63
54270;BME280;40181;51.560;13.000;2023-12-20T09:25:29;100163.41;;;5.40;97.64
54270;BME280;40181;51.560;13.000;2023-12-20T09:27:58;100176.19;;;5.31;98.23
54270;BME280;40181;51.560;13.000;2023-12-20T09:30:30;100159.06;;;5.41;97.83
54270;BME280;40181;51.560;13.000;2023-12-20T09:33:00;100165.19;;;5.43;98.24
54270;BME280;40181;51.560;13.000;2023-12-20T09:35:30;100154.38;;;5.29;98.55
54270;BME280;40181;51.560;13.000;2023-12-20T09:37:59;100162.44;;;5.37;98.75
54270;BME280;40181;51.560;13.000;2023-12-20T09:40:29;100163.34;;;5.39;98.69
54270;BME280;40181;51.560;13.000;2023-12-20T09:43:02;100149.75;;;5.49;97.18
54270;BME280;40181;51.560;13.000;2023-12-20T09:45:35;100157.56;;;5.49;97.42
54270;BME280;40181;51.560;13.000;2023-12-20T09:48:07;100152.09;;;5.40;97.23
54270;BME280;40181;51.560;13.000;2023-12-20T09:50:37;100144.66;;;5.54;95.91
54270;BME280;40181;51.560;13.000;2023-12-20T09:53:08;100140.25;;;5.51;96.09
54270;BME280;40181;51.560;13.000;2023-12-20T09:55:41;100143.28;;;5.67;96.44
54270;BME280;40181;51.560;13.000;2023-12-20T09:58:10;100157.03;;;5.61;96.79
54270;BME280;40181;51.560;13.000;2023-12-20T10:00:42;100139.44;;;5.54;96.96
54270;BME280;40181;51.560;13.000;2023-12-20T10:03:13;100137.81;;;5.58;95.82
54270;BME280;40181;51.560;13.000;2023-12-20T10:05:44;100138.47;;;5.50;95.47
54270;BME280;40181;51.560;13.000;2023-12-20T10:08:14;100133.63;;;5.63;95.42
54270;BME280;40181;51.560;13.000;2023-12-20T10:10:41;100119.81;;;5.67;95.60
54270;BME280;40181;51.560;13.000;2023-12-20T10:13:11;100115.50;;;5.69;96.16
54270;BME280;40181;51.560;13.000;2023-12-20T10:15:43;100109.69;;;5.78;96.25
54270;BME280;40181;51.560;13.000;2023-12-20T10:18:12;100115.56;;;5.71;95.01
54270;BME280;40181;51.560;13.000;2023-12-20T10:20:42;100101.81;;;5.76;95.17
54270;BME280;40181;51.560;13.000;2023-12-20T10:23:11;100094.16;;;5.82;94.96
54270;BME280;40181;51.560;13.000;2023-12-20T10:25:40;100096.53;;;5.75;94.74
54270;BME280;40181;51.560;13.000;2023-12-20T10:28:11;100093.31;;;5.84;94.08
54270;BME280;40181;51.560;13.000;2023-12-20T10:30:45;100083.03;;;5.90;93.78
54270;BME280;40181;51.560;13.000;2023-12-20T10:33:23;100077.78;;;5.88;92.53
54270;BME280;40181;51.560;13.000;2023-12-20T10:35:54;100075.59;;;6.04;91.93
54270;BME280;40181;51.560;13.000;2023-12-20T10:38:24;100085.97;;;6.02;91.87
54270;BME280;40181;51.560;13.000;2023-12-20T10:40:57;100099.59;;;5.93;91.50
54270;BME280;40181;51.560;13.000;2023-12-20T10:43:28;100090.88;;;5.91;90.35
54270;BME280;40181;51.560;13.000;2023-12-20T10:46:00;100092.94;;;6.03;91.12
54270;BME280;40181;51.560;13.000;2023-12-20T10:48:32;100075.53;;;6.02;90.65
54270;BME280;40181;51.560;13.000;2023-12-20T10:51:02;100074.06;;;6.14;90.30
54270;BME280;40181;51.560;13.000;2023-12-20T10:53:33;100080.66;;;6.01;90.76
54270;BME280;40181;51.560;13.000;2023-12-20T10:56:06;100066.19;;;6.11;89.49
54270;BME280;40181;51.560;13.000;2023-12-20T10:58:38;100068.09;;;6.18;90.43
54270;BME280;40181;51.560;13.000;2023-12-20T11:01:14;100063.53;;;6.09;90.58
54270;BME280;40181;51.560;13.000;2023-12-20T11:03:47;100059.94;;;6.04;90.78
54270;BME280;40181;51.560;13.000;2023-12-20T11:06:29;100061.75;;;6.08;91.30
54270;BME280;40181;51.560;13.000;2023-12-20T11:09:11;100048.09;;;6.18;90.90
54270;BME280;40181;51.560;13.000;2023-12-20T11:12:03;100060.16;;;6.15;89.94
54270;BME280;40181;51.560;13.000;2023-12-20T11:14:42;100055.81;;;6.14;90.20
54270;BME280;40181;51.560;13.000;2023-12-20T11:17:16;100040.97;;;6.11;89.34
54270;BME280;40181;51.560;13.000;2023-12-20T11:20:04;100053.09;;;6.09;89.42
54270;BME280;40181;51.560;13.000;2023-12-20T11:22:36;100040.41;;;6.25;88.97
54270;BME280;40181;51.560;13.000;2023-12-20T11:25:08;100053.28;;;6.17;89.34
54270;BME280;40181;51.560;13.000;2023-12-20T11:27:41;100049.09;;;6.23;88.54
54270;BME280;40181;51.560;13.000;2023-12-20T11:30:12;100042.75;;;6.14;87.79
54270;BME280;40181;51.560;13.000;2023-12-20T11:32:46;100036.91;;;6.22;88.61
54270;BME280;40181;51.560;13.000;2023-12-20T11:35:19;100041.28;;;6.25;87.45
54270;BME280;40181;51.560;13.000;2023-12-20T11:37:49;100025.59;;;6.23;87.43
54270;BME280;40181;51.560;13.000;2023-12-20T11:40:19;100014.44;;;6.29;87.38
54270;BME280;40181;51.560;13.000;2023-12-20T11:42:51;100016.88;;;6.23;87.24
54270;BME280;40181;51.560;13.000;2023-12-20T11:45:22;100010.13;;;6.31;87.20
54270;BME280;40181;51.560;13.000;2023-12-20T11:47:56;99998.84;;;6.32;86.12
54270;BME280;40181;51.560;13.000;2023-12-20T11:50:25;99999.84;;;6.39;86.13
54270;BME280;40181;51.560;13.000;2023-12-20T11:52:55;100005.13;;;6.42;86.48
54270;BME280;40181;51.560;13.000;2023-12-20T11:55:24;99990.47;;;6.49;85.48
54270;BME280;40181;51.560;13.000;2023-12-20T11:57:53;99998.97;;;6.39;85.21
54270;BME280;40181;51.560;13.000;2023-12-20T12:00:22;99989.94;;;6.24;85.70
54270;BME280;40181;51.560;13.000;2023-12-20T12:02:58;99979.75;;;6.35;85.21
54270;BME280;40181;51.560;13.000;2023-12-20T12:05:30;99976.25;;;6.33;84.87
54270;BME280;40181;51.560;13.000;2023-12-20T12:08:01;99971.88;;;6.33;85.66
54270;BME280;40181;51.560;13.000;2023-12-20T12:10:31;99966.66;;;6.33;85.89
54270;BME280;40181;51.560;13.000;2023-12-20T12:13:00;99955.47;;;6.39;85.63
54270;BME280;40181;51.560;13.000;2023-12-20T12:15:29;99966.66;;;6.32;84.92
54270;BME280;40181;51.560;13.000;2023-12-20T12:18:01;99971.78;;;6.29;84.98
54270;BME280;40181;51.560;13.000;2023-12-20T12:20:30;99952.72;;;6.31;85.13
54270;BME280;40181;51.560;13.000;2023-12-20T12:23:00;99955.59;;;6.44;85.53
54270;BME280;40181;51.560;13.000;2023-12-20T12:25:32;99960.50;;;6.30;85.21
54270;BME280;40181;51.560;13.000;2023-12-20T12:28:04;99943.28;;;6.38;84.84
54270;BME280;40181;51.560;13.000;2023-12-20T12:30:33;99951.88;;;6.31;84.38
54270;BME280;40181;51.560;13.000;2023-12-20T12:33:04;99946.94;;;6.46;84.58
54270;BME280;40181;51.560;13.000;2023-12-20T12:35:34;99947.66;;;6.38;83.81
54270;BME280;40181;51.560;13.000;2023-12-20T12:38:03;99942.47;;;6.41;83.81
54270;BME280;40181;51.560;13.000;2023-12-20T12:40:35;99939.97;;;6.45;84.25
54270;BME280;40181;51.560;13.000;2023-12-20T12:43:04;99926.06;;;6.46;83.58
54270;BME280;40181;51.560;13.000;2023-12-20T12:45:33;99930.44;;;6.47;84.35
54270;BME280;40181;51.560;13.000;2023-12-20T12:48:06;99933.00;;;6.44;83.91
54270;BME280;40181;51.560;13.000;2023-12-20T12:50:35;99914.59;;;6.38;84.14
54270;BME280;40181;51.560;13.000;2023-12-20T12:53:04;99927.91;;;6.52;84.22
54270;BME280;40181;51.560;13.000;2023-12-20T12:55:35;99926.06;;;6.46;84.81
54270;BME280;40181;51.560;13.000;2023-12-20T12:58:04;99924.28;;;6.44;83.66